Time;durP1;ratioP1;P1;durP2;ratioP2;P2;SDS_P1;SDS_P2;PMS_P1;PMS_P2;Temp;Humidity;BMP_temperature;BMP_pressure;BME280_temperature;BME280_humidity;BME280_pressure;Samples;Min_cycle;Max_cycle;Signal;HPM_P1;HPM_P2
2021/10/19 00:00:09;;;;;;;;;;;13.60;99.90;;;;;;4957111;28;19911;-93
2021/10/19 00:02:36;;;;;;;;;;;13.50;99.90;;;;;;4975219;28;19903;-91
2021/10/19 00:05:02;;;;;;;;;;;13.50;99.90;;;;;;4957373;23;19937;-92
2021/10/19 00:07:28;;;;;;;;;;;13.50;99.90;;;;;;4922217;29;19929;-93
2021/10/19 00:09:56;;;;;;;;;;;13.50;99.90;;;;;;4934725;29;19911;-92
2021/10/19 00:12:22;;;;;;;;;;;13.50;99.90;;;;;;4913995;29;19915;-93
2021/10/19 00:14:48;;;;;;;;;;;13.40;99.90;;;;;;4932282;29;19895;-93
2021/10/19 00:17:14;;;;;;;;;;;13.40;99.90;;;;;;4923703;29;20414;-91
2021/10/19 00:19:40;;;;;;;;;;;13.40;99.90;;;;;;4918384;29;19950;-92
2021/10/19 00:22:06;;;;;;;;;;;13.40;99.90;;;;;;4925557;29;19913;-91
2021/10/19 00:24:31;;;;;;;;;;;13.40;99.90;;;;;;4940307;29;19946;-92
2021/10/19 00:27:02;;;;;;;;;;;13.40;99.90;;;;;;4928833;29;19911;-92
2021/10/19 00:37:11;;;;;;;;;;;13.40;99.90;;;;;;4961091;28;19926;-92
2021/10/19 00:39:37;;;;;;;;;;;13.50;99.90;;;;;;4955334;23;19926;-92
2021/10/19 00:42:02;;;;;;;;;;;13.50;99.90;;;;;;4945446;29;19915;-91
2021/10/19 00:44:28;;;;;;;;;;;13.50;99.90;;;;;;4963954;29;19977;-89
2021/10/19 00:46:57;;;;;;;;;;;13.50;99.90;;;;;;4961597;29;19981;-91
2021/10/19 00:49:22;;;;;;;;;;;13.50;99.90;;;;;;4959957;29;20394;-92
2021/10/19 00:51:48;;;;;;;;;;;13.40;99.90;;;;;;4986141;28;19945;-90
2021/10/19 00:54:18;;;;;;;;;;;13.40;99.90;;;;;;4973630;29;19921;-92
2021/10/19 00:56:44;;;;;;;;;;;13.40;99.90;;;;;;4970856;29;19930;-92
2021/10/19 00:59:09;;;;;;;;;;;13.40;99.90;;;;;;4969913;28;19922;-93
2021/10/19 01:01:35;;;;;;;;;;;13.40;99.90;;;;;;4976693;28;19966;-92
2021/10/19 01:04:01;;;;;;;;;;;13.40;99.90;;;;;;4974530;28;19899;-91
2021/10/19 01:06:27;;;;;;;;;;;13.40;99.90;;;;;;4969616;28;19950;-92
2021/10/19 01:08:53;;;;;;;;;;;13.40;99.90;;;;;;4960235;29;19922;-90
2021/10/19 01:11:19;;;;;;;;;;;13.40;99.90;;;;;;4958685;28;20401;-88
2021/10/19 01:13:45;;;;;;;;;;;13.40;99.90;;;;;;4958008;29;19946;-91
2021/10/19 01:16:11;;;;;;;;;;;13.30;99.90;;;;;;4953507;29;19962;-91
2021/10/19 01:18:37;;;;;;;;;;;13.30;99.90;;;;;;4963351;29;19914;-91
2021/10/19 01:21:03;;;;;;;;;;;13.20;99.90;;;;;;4944468;29;19993;-89
2021/10/19 01:23:29;;;;;;;;;;;13.20;99.90;;;;;;4961904;28;19911;-90
2021/10/19 01:25:55;;;;;;;;;;;13.30;99.90;;;;;;4945432;29;19922;-91
2021/10/19 01:28:20;;;;;;;;;;;13.30;99.90;;;;;;4962902;28;19919;-92
2021/10/19 01:30:47;;;;;;;;;;;13.30;99.90;;;;;;4958338;29;20162;-92
2021/10/19 01:33:13;;;;;;;;;;;13.20;99.90;;;;;;4962453;29;19914;-92
2021/10/19 01:35:40;;;;;;;;;;;13.30;99.90;;;;;;4968296;28;19911;-91
2021/10/19 01:38:07;;;;;;;;;;;13.30;99.90;;;;;;4966559;28;20378;-91
2021/10/19 01:40:33;;;;;;;;;;;13.30;99.90;;;;;;4954770;29;20045;-91
2021/10/19 01:42:58;;;;;;;;;;;13.30;99.90;;;;;;4963970;28;19918;-92
2021/10/19 01:45:27;;;;;;;;;;;13.30;99.90;;;;;;4975132;28;19958;-91
2021/10/19 01:47:53;;;;;;;;;;;13.30;99.90;;;;;;4969396;28;19987;-92
2021/10/19 01:50:19;;;;;;;;;;;13.30;99.90;;;;;;4966891;29;19911;-92
2021/10/19 01:52:45;;;;;;;;;;;13.30;99.90;;;;;;4965230;29;19951;-92
2021/10/19 01:55:18;;;;;;;;;;;13.20;99.90;;;;;;4970503;29;19926;-91
2021/10/19 01:57:44;;;;;;;;;;;13.10;99.90;;;;;;4954951;29;19918;-94
2021/10/19 02:00:10;;;;;;;;;;;13.10;99.90;;;;;;4954717;29;19978;-91
2021/10/19 02:02:35;;;;;;;;;;;13.10;99.90;;;;;;4971491;29;19938;-92
2021/10/19 02:05:01;;;;;;;;;;;13.00;99.90;;;;;;4969956;29;19911;-90
2021/10/19 02:07:26;;;;;;;;;;;13.00;99.90;;;;;;4957661;29;19911;-92
2021/10/19 02:09:52;;;;;;;;;;;13.00;99.90;;;;;;4971821;28;19915;-93
2021/10/19 02:12:18;;;;;;;;;;;13.00;99.90;;;;;;4962498;28;19971;-92
2021/10/19 02:14:44;;;;;;;;;;;13.00;99.90;;;;;;4959606;29;19938;-93
2021/10/19 02:17:09;;;;;;;;;;;13.00;99.90;;;;;;4974515;28;19910;-93
2021/10/19 02:19:35;;;;;;;;;;;13.00;99.90;;;;;;4967059;29;19957;-91
2021/10/19 02:22:01;;;;;;;;;;;13.00;99.90;;;;;;4959910;29;19956;-92
2021/10/19 02:24:26;;;;;;;;;;;13.10;99.90;;;;;;4963665;29;19914;-92
2021/10/19 02:26:52;;;;;;;;;;;13.10;99.90;;;;;;4977656;28;19922;-93
2021/10/19 02:29:18;;;;;;;;;;;13.20;99.90;;;;;;4944720;29;19911;-92
2021/10/19 02:31:50;;;;;;;;;;;13.20;99.90;;;;;;4962641;29;19906;-92
2021/10/19 02:34:16;;;;;;;;;;;13.20;99.90;;;;;;4962727;29;19922;-91
2021/10/19 02:36:43;;;;;;;;;;;13.10;99.90;;;;;;4958240;29;20004;-92
2021/10/19 02:39:08;;;;;;;;;;;13.00;99.90;;;;;;4958048;29;20367;-91
2021/10/19 02:41:35;;;;;;;;;;;13.00;99.90;;;;;;4957741;29;19958;-91
2021/10/19 02:44:01;;;;;;;;;;;13.00;99.90;;;;;;4973240;29;19981;-91
2021/10/19 02:46:26;;;;;;;;;;;13.00;99.90;;;;;;4977082;28;19919;-94
2021/10/19 02:48:52;;;;;;;;;;;12.90;99.90;;;;;;4963434;28;19990;-95
2021/10/19 02:51:19;;;;;;;;;;;12.80;99.90;;;;;;4968171;28;19907;-92
2021/10/19 02:53:44;;;;;;;;;;;12.80;99.90;;;;;;4975800;28;19922;-91
2021/10/19 02:56:10;;;;;;;;;;;12.70;99.90;;;;;;4975705;28;19899;-92
2021/10/19 02:58:35;;;;;;;;;;;12.70;99.90;;;;;;4984206;28;19989;-91
2021/10/19 03:13:58;;;;;;;;;;;12.50;99.90;;;;;;5058306;23;19927;-91
2021/10/19 03:16:24;;;;;;;;;;;12.50;99.90;;;;;;4952449;29;20026;-91
2021/10/19 03:19:17;;;;;;;;;;;12.50;99.90;;;;;;4954800;28;20034;-91
2021/10/19 03:21:42;;;;;;;;;;;12.60;99.90;;;;;;4965819;28;19973;-91
2021/10/19 03:24:08;;;;;;;;;;;12.60;99.90;;;;;;4962757;29;20368;-92
2021/10/19 03:26:34;;;;;;;;;;;12.60;99.90;;;;;;4952514;29;19926;-91
2021/10/19 03:29:03;;;;;;;;;;;12.50;99.90;;;;;;4949879;29;19910;-92
2021/10/19 03:31:34;;;;;;;;;;;12.30;99.90;;;;;;4947147;29;20424;-92
2021/10/19 03:34:00;;;;;;;;;;;12.20;99.90;;;;;;4929234;29;19911;-91
2021/10/19 03:36:26;;;;;;;;;;;12.00;99.90;;;;;;4944746;29;19938;-91
2021/10/19 03:39:01;;;;;;;;;;;12.00;99.90;;;;;;4959531;29;19922;-91
2021/10/19 03:41:27;;;;;;;;;;;11.80;99.90;;;;;;4956608;28;20004;-94
2021/10/19 03:43:52;;;;;;;;;;;11.70;99.90;;;;;;4955010;28;19918;-94
2021/10/19 03:46:18;;;;;;;;;;;11.60;99.90;;;;;;4966409;28;19922;-94
2021/10/19 03:48:44;;;;;;;;;;;11.60;99.90;;;;;;4950682;28;19918;-91
2021/10/19 03:51:09;;;;;;;;;;;11.50;99.90;;;;;;4955768;28;19902;-95
2021/10/19 03:53:37;;;;;;;;;;;11.60;99.90;;;;;;4961432;28;19919;-95
2021/10/19 03:56:03;;;;;;;;;;;11.50;99.90;;;;;;4969410;28;19941;-95
2021/10/19 03:58:29;;;;;;;;;;;11.50;99.90;;;;;;4965262;28;19918;-93
2021/10/19 04:00:57;;;;;;;;;;;11.40;99.90;;;;;;4959924;29;19911;-92
2021/10/19 04:03:26;;;;;;;;;;;11.40;99.90;;;;;;4955254;28;19918;-94
2021/10/19 04:05:52;;;;;;;;;;;11.40;99.90;;;;;;4965926;28;19978;-93
2021/10/19 04:08:18;;;;;;;;;;;11.50;99.90;;;;;;4960752;28;19982;-91
2021/10/19 04:10:43;;;;;;;;;;;11.50;99.90;;;;;;4987677;28;19918;-92
2021/10/19 04:13:09;;;;;;;;;;;11.60;99.90;;;;;;4978999;28;19954;-91
2021/10/19 04:15:35;;;;;;;;;;;11.60;99.90;;;;;;4956165;28;19930;-94
2021/10/19 04:18:00;;;;;;;;;;;11.80;99.90;;;;;;4964534;29;19918;-92
2021/10/19 04:20:26;;;;;;;;;;;11.80;99.90;;;;;;4978838;28;19919;-91
2021/10/19 04:22:52;;;;;;;;;;;11.80;99.90;;;;;;4976030;28;19965;-90
2021/10/19 04:25:17;;;;;;;;;;;11.90;99.90;;;;;;4942593;29;19943;-91
2021/10/19 04:27:43;;;;;;;;;;;11.80;99.90;;;;;;4940168;29;20006;-90
2021/10/19 04:30:09;;;;;;;;;;;11.90;99.90;;;;;;4962423;28;20317;-91
2021/10/19 04:32:34;;;;;;;;;;;11.90;99.90;;;;;;4964890;28;19910;-91
2021/10/19 04:35:00;;;;;;;;;;;11.90;99.90;;;;;;4943617;29;19956;-92
2021/10/19 04:37:26;;;;;;;;;;;11.90;99.90;;;;;;4942621;29;19914;-92
2021/10/19 04:39:51;;;;;;;;;;;11.80;99.90;;;;;;4927689;29;20011;-91
2021/10/19 04:45:37;;;;;;;;;;;12.00;99.90;;;;;;4959899;29;19930;-91
2021/10/19 04:48:03;;;;;;;;;;;12.00;99.90;;;;;;4942857;29;19957;-88
2021/10/19 04:50:29;;;;;;;;;;;12.00;99.90;;;;;;4977749;28;19942;-92
2021/10/19 04:52:55;;;;;;;;;;;12.10;99.90;;;;;;4980146;28;19950;-91
2021/10/19 04:55:21;;;;;;;;;;;12.00;99.90;;;;;;4949385;29;19914;-92
2021/10/19 05:21:32;;;;;;;;;;;11.60;99.90;;;;;;4970960;28;19927;-92
2021/10/19 05:23:58;;;;;;;;;;;11.50;99.90;;;;;;4956537;29;20025;-82
2021/10/19 05:26:25;;;;;;;;;;;11.50;99.90;;;;;;4939947;29;20008;-81
2021/10/19 05:28:51;;;;;;;;;;;11.50;99.90;;;;;;4959585;28;19914;-81
2021/10/19 05:31:17;;;;;;;;;;;11.50;99.90;;;;;;4971626;28;19921;-81
2021/10/19 05:33:46;;;;;;;;;;;11.50;99.90;;;;;;4971577;28;19914;-82
2021/10/19 05:36:12;;;;;;;;;;;11.50;99.90;;;;;;4959064;28;20009;-83
2021/10/19 05:38:38;;;;;;;;;;;11.50;99.90;;;;;;4953456;28;19914;-82
2021/10/19 05:41:35;;;;;;;;;;;11.60;99.90;;;;;;4976643;28;20001;-82
2021/10/19 05:47:29;;;;;;;;;;;11.90;99.90;;;;;;4953624;28;19914;-81
2021/10/19 05:50:24;;;;;;;;;;;11.90;99.90;;;;;;4974224;28;20020;-82
2021/10/19 05:52:49;;;;;;;;;;;11.90;99.90;;;;;;4967006;28;20017;-81
2021/10/19 05:55:15;;;;;;;;;;;11.90;99.90;;;;;;4967339;28;19915;-82
2021/10/19 05:58:02;;;;;;;;;;;11.80;99.90;;;;;;4965422;28;20337;-82
2021/10/19 06:00:27;;;;;;;;;;;11.80;99.90;;;;;;4968313;28;19944;-82
2021/10/19 06:02:55;;;;;;;;;;;11.80;99.90;;;;;;4946235;28;20120;-82
2021/10/19 06:05:22;;;;;;;;;;;11.80;99.90;;;;;;4953029;28;19914;-82
2021/10/19 06:07:47;;;;;;;;;;;11.80;99.90;;;;;;4955678;28;20406;-83
2021/10/19 06:10:13;;;;;;;;;;;11.90;99.90;;;;;;4950278;28;19918;-83
2021/10/19 06:12:39;;;;;;;;;;;11.90;99.90;;;;;;4964375;28;20307;-83
2021/10/19 06:15:04;;;;;;;;;;;12.00;99.90;;;;;;4946543;29;19962;-83
2021/10/19 06:17:30;;;;;;;;;;;12.00;99.90;;;;;;4959954;28;20348;-82
2021/10/19 06:19:56;;;;;;;;;;;12.10;99.90;;;;;;4962698;28;19941;-81
2021/10/19 06:22:22;;;;;;;;;;;12.20;99.90;;;;;;4977589;28;20305;-82
2021/10/19 06:24:47;;;;;;;;;;;12.30;99.90;;;;;;4962205;28;19910;-82
2021/10/19 06:27:13;;;;;;;;;;;12.50;99.90;;;;;;4968015;28;20011;-82
2021/10/19 06:29:39;;;;;;;;;;;12.60;99.90;;;;;;4948657;28;19922;-83
2021/10/19 06:32:04;;;;;;;;;;;12.70;99.90;;;;;;4955072;28;19914;-83
2021/10/19 06:34:30;;;;;;;;;;;12.90;99.90;;;;;;4963229;28;19914;-82
2021/10/19 06:36:55;;;;;;;;;;;12.90;99.90;;;;;;4972390;28;19910;-81
2021/10/19 06:39:21;;;;;;;;;;;13.00;99.90;;;;;;4953583;28;20402;-81
2021/10/19 06:41:49;;;;;;;;;;;13.10;99.90;;;;;;4964254;28;19938;-81
2021/10/19 06:44:16;;;;;;;;;;;13.10;99.90;;;;;;4971838;28;19914;-81
2021/10/19 06:46:42;;;;;;;;;;;13.30;99.90;;;;;;4964398;29;19914;-81
2021/10/19 06:49:07;;;;;;;;;;;13.40;99.90;;;;;;4963460;28;19994;-80
2021/10/19 06:51:33;;;;;;;;;;;13.50;99.90;;;;;;4964854;29;19922;-82
2021/10/19 06:53:58;;;;;;;;;;;13.60;99.90;;;;;;4947121;29;19969;-84
2021/10/19 06:56:24;;;;;;;;;;;13.60;99.90;;;;;;4957905;29;19966;-82
2021/10/19 06:58:49;;;;;;;;;;;13.70;99.90;;;;;;4935978;29;19919;-80
2021/10/19 07:01:16;;;;;;;;;;;13.90;99.90;;;;;;4944194;29;20407;-80
2021/10/19 07:03:42;;;;;;;;;;;14.00;99.90;;;;;;4960373;29;19915;-81
2021/10/19 07:06:07;;;;;;;;;;;14.00;99.90;;;;;;4962375;29;20277;-81
2021/10/19 07:08:33;;;;;;;;;;;14.20;99.90;;;;;;4944703;29;19910;-82
2021/10/19 07:10:59;;;;;;;;;;;14.20;99.90;;;;;;4963422;29;19911;-84
2021/10/19 07:13:28;;;;;;;;;;;14.20;99.90;;;;;;4964131;29;19929;-84
2021/10/19 07:15:54;;;;;;;;;;;14.20;99.90;;;;;;4961433;29;19911;-89
2021/10/19 07:18:23;;;;;;;;;;;14.40;99.90;;;;;;4965660;28;20014;-84
2021/10/19 07:20:49;;;;;;;;;;;14.40;99.90;;;;;;4970072;28;19918;-83
2021/10/19 07:23:15;;;;;;;;;;;14.40;99.90;;;;;;4965465;28;19937;-80
2021/10/19 07:25:41;;;;;;;;;;;14.50;99.90;;;;;;4950608;28;20378;-83
2021/10/19 07:28:06;;;;;;;;;;;14.50;99.90;;;;;;4961299;28;19920;-82
2021/10/19 07:30:32;;;;;;;;;;;14.60;99.90;;;;;;4951075;28;19917;-81
2021/10/19 07:32:58;;;;;;;;;;;14.60;99.90;;;;;;4967653;28;19930;-82
2021/10/19 07:35:24;;;;;;;;;;;14.80;99.90;;;;;;4972056;28;20306;-86
2021/10/19 07:37:49;;;;;;;;;;;14.90;99.90;;;;;;4961496;28;19915;-86
2021/10/19 07:40:15;;;;;;;;;;;14.90;99.90;;;;;;4946242;28;19926;-83
2021/10/19 07:42:41;;;;;;;;;;;15.00;99.90;;;;;;4950479;29;19941;-84
2021/10/19 07:45:08;;;;;;;;;;;15.00;99.90;;;;;;4959666;28;19918;-82
2021/10/19 07:47:37;;;;;;;;;;;14.90;99.90;;;;;;4978070;28;19914;-81
2021/10/19 07:50:03;;;;;;;;;;;15.00;99.90;;;;;;4956697;28;19965;-85
2021/10/19 07:52:28;;;;;;;;;;;15.10;99.90;;;;;;4946716;29;19985;-83
2021/10/19 07:54:54;;;;;;;;;;;15.20;99.90;;;;;;4953061;28;19922;-83
2021/10/19 07:57:19;;;;;;;;;;;15.30;99.90;;;;;;4955644;28;19915;-85
2021/10/19 07:59:45;;;;;;;;;;;15.40;99.90;;;;;;4972017;29;20394;-82
2021/10/19 08:02:10;;;;;;;;;;;15.50;99.90;;;;;;4954364;29;19921;-83
2021/10/19 08:04:36;;;;;;;;;;;15.50;99.90;;;;;;4950283;29;19945;-84
2021/10/19 08:07:02;;;;;;;;;;;15.60;99.90;;;;;;4950700;28;19925;-83
2021/10/19 08:09:27;;;;;;;;;;;15.60;99.90;;;;;;4949437;28;19929;-84
2021/10/19 08:11:53;;;;;;;;;;;15.70;99.90;;;;;;4970577;28;20595;-84
2021/10/19 08:14:19;;;;;;;;;;;15.70;99.90;;;;;;4946957;29;19915;-85
2021/10/19 08:16:44;;;;;;;;;;;15.70;99.90;;;;;;4950323;28;19915;-86
2021/10/19 08:19:10;;;;;;;;;;;15.70;99.90;;;;;;4959895;28;19961;-84
2021/10/19 08:21:35;;;;;;;;;;;15.80;99.90;;;;;;4970027;28;19921;-84
2021/10/19 08:24:01;;;;;;;;;;;15.80;99.90;;;;;;4956187;28;19969;-83
2021/10/19 08:26:31;;;;;;;;;;;15.90;99.90;;;;;;4964021;28;19918;-84
2021/10/19 08:28:57;;;;;;;;;;;16.00;99.90;;;;;;4970816;28;20382;-85
2021/10/19 08:31:22;;;;;;;;;;;16.00;99.90;;;;;;4969619;28;19983;-84
2021/10/19 08:33:50;;;;;;;;;;;16.10;99.90;;;;;;4954854;28;19905;-84
2021/10/19 08:36:16;;;;;;;;;;;16.10;99.90;;;;;;4975352;28;20007;-82
2021/10/19 08:38:43;;;;;;;;;;;16.10;99.90;;;;;;4956562;28;20466;-83
2021/10/19 08:41:10;;;;;;;;;;;16.20;99.90;;;;;;4988974;28;19965;-87
2021/10/19 08:43:38;;;;;;;;;;;16.20;99.90;;;;;;4984799;28;19919;-85
2021/10/19 08:46:05;;;;;;;;;;;16.30;99.90;;;;;;4954352;29;19930;-85
2021/10/19 08:48:31;;;;;;;;;;;16.40;99.90;;;;;;4950624;28;19922;-84
2021/10/19 08:50:57;;;;;;;;;;;16.40;99.90;;;;;;4946193;28;19983;-84
2021/10/19 08:53:23;;;;;;;;;;;16.50;99.90;;;;;;4970866;28;19914;-83
2021/10/19 08:55:49;;;;;;;;;;;16.60;99.90;;;;;;4977402;28;19922;-86
2021/10/19 08:58:14;;;;;;;;;;;16.60;99.90;;;;;;4969501;29;19914;-83
2021/10/19 09:00:40;;;;;;;;;;;16.70;99.90;;;;;;4983968;28;19982;-84
2021/10/19 09:03:06;;;;;;;;;;;16.80;99.90;;;;;;4978522;28;19910;-84
2021/10/19 09:05:31;;;;;;;;;;;16.90;99.90;;;;;;4973199;28;19922;-83
2021/10/19 09:08:05;;;;;;;;;;;17.00;99.90;;;;;;4973441;28;20013;-82
2021/10/19 09:10:32;;;;;;;;;;;16.90;99.90;;;;;;4953612;29;20445;-83
2021/10/19 09:12:59;;;;;;;;;;;16.90;99.90;;;;;;4965516;28;19910;-83
2021/10/19 09:15:40;;;;;;;;;;;17.00;99.90;;;;;;4983405;23;19926;-88
2021/10/19 09:18:12;;;;;;;;;;;16.90;99.90;;;;;;4977647;28;19914;-88
2021/10/19 09:20:47;;;;;;;;;;;16.90;99.90;;;;;;4969089;28;19923;-88
2021/10/19 09:23:18;;;;;;;;;;;16.80;99.90;;;;;;4992924;28;19918;-88
2021/10/19 09:25:48;;;;;;;;;;;16.70;99.90;;;;;;4984804;28;19918;-87
2021/10/19 09:28:22;;;;;;;;;;;16.70;99.90;;;;;;4989977;28;19973;-86
2021/10/19 09:30:49;;;;;;;;;;;16.60;99.90;;;;;;4969275;28;20020;-88
2021/10/19 09:33:21;;;;;;;;;;;16.50;99.90;;;;;;4995773;28;19938;-88
2021/10/19 09:35:55;;;;;;;;;;;16.50;99.90;;;;;;4979848;28;19938;-87
2021/10/19 09:38:24;;;;;;;;;;;16.60;99.90;;;;;;4987060;28;19906;-87
2021/10/19 09:41:03;;;;;;;;;;;16.80;99.90;;;;;;4975298;28;19921;-86
2021/10/19 09:43:41;;;;;;;;;;;16.80;99.90;;;;;;4969031;28;19922;-88
2021/10/19 09:46:32;;;;;;;;;;;17.00;99.90;;;;;;4962009;28;20069;-87
2021/10/19 09:49:06;;;;;;;;;;;17.20;99.90;;;;;;4968323;29;19914;-87
2021/10/19 09:51:47;;;;;;;;;;;17.30;99.90;;;;;;4972134;29;19926;-87
2021/10/19 09:54:21;;;;;;;;;;;17.40;99.90;;;;;;4969081;29;19982;-87
2021/10/19 09:56:58;;;;;;;;;;;17.30;99.90;;;;;;4965217;28;19926;-87
2021/10/19 09:59:44;;;;;;;;;;;17.20;99.90;;;;;;4979244;28;19922;-86
2021/10/19 10:02:19;;;;;;;;;;;17.20;99.90;;;;;;4990541;28;19974;-87
2021/10/19 10:04:57;;;;;;;;;;;17.20;99.90;;;;;;4973866;28;19946;-86
2021/10/19 10:07:35;;;;;;;;;;;17.30;99.90;;;;;;4974351;29;19919;-86
2021/10/19 10:10:05;;;;;;;;;;;17.10;99.90;;;;;;4986053;28;19914;-87
2021/10/19 10:12:37;;;;;;;;;;;17.20;99.90;;;;;;4993667;28;19911;-86
2021/10/19 10:15:09;;;;;;;;;;;17.50;99.90;;;;;;4980181;28;19917;-87
2021/10/19 10:17:51;;;;;;;;;;;17.60;99.90;;;;;;4968682;29;19920;-88
2021/10/19 10:20:18;;;;;;;;;;;17.70;99.90;;;;;;4984876;28;19914;-88
2021/10/19 10:22:44;;;;;;;;;;;17.80;99.90;;;;;;4992501;28;19929;-86
2021/10/19 10:25:18;;;;;;;;;;;17.90;99.90;;;;;;4968478;29;20374;-86
2021/10/19 10:27:44;;;;;;;;;;;18.10;99.90;;;;;;4994582;28;19919;-86
2021/10/19 10:30:19;;;;;;;;;;;18.10;99.90;;;;;;4977943;28;19955;-86
2021/10/19 10:32:45;;;;;;;;;;;18.30;99.90;;;;;;4970030;28;20016;-87
2021/10/19 10:35:57;;;;;;;;;;;;;;;;;;;;;
2021/10/19 10:38:24;;;;;;;;;;;18.20;99.90;;;;;;4991852;28;20199;-87
2021/10/19 10:40:56;;;;;;;;;;;18.20;99.90;;;;;;4993051;28;20009;-87
2021/10/19 10:43:34;;;;;;;;;;;18.10;99.90;;;;;;4970682;29;19946;-88
2021/10/19 10:46:11;;;;;;;;;;;18.10;99.90;;;;;;4977215;29;19898;-86
2021/10/19 10:48:38;;;;;;;;;;;18.00;99.90;;;;;;4984945;28;19914;-86
2021/10/19 10:51:10;;;;;;;;;;;17.70;99.90;;;;;;4975982;29;19903;-86
2021/10/19 10:53:41;;;;;;;;;;;17.60;99.90;;;;;;4985775;28;20427;-86
2021/10/19 10:56:11;;;;;;;;;;;17.40;99.90;;;;;;4994063;28;20270;-86
2021/10/19 11:01:31;;;;;;;;;;;17.20;99.90;;;;;;4307823;26;19937;-87
2021/10/19 11:04:08;;;;;;;;;;;17.20;99.90;;;;;;4998349;28;19894;-87
2021/10/19 11:06:36;;;;;;;;;;;17.30;99.90;;;;;;4990426;28;19913;-86
2021/10/19 11:09:21;;;;;;;;;;;17.50;99.90;;;;;;5008823;28;19933;-87
2021/10/19 11:11:47;;;;;;;;;;;17.70;99.90;;;;;;4995514;28;19898;-87
2021/10/19 11:17:09;;;;;;;;;;;18.10;99.90;;;;;;4992737;28;19925;-86
2021/10/19 11:19:54;;;;;;;;;;;;;;;;;;;;;
2021/10/19 11:22:21;;;;;;;;;;;18.40;99.90;;;;;;5013636;28;19942;-86
2021/10/19 11:24:49;;;;;;;;;;;18.50;99.90;;;;;;5000976;28;19969;-87
2021/10/19 11:27:17;;;;;;;;;;;18.60;99.90;;;;;;5010487;28;19924;-86
2021/10/19 11:29:42;;;;;;;;;;;18.50;99.90;;;;;;4984552;28;19926;-87
2021/10/19 11:32:15;;;;;;;;;;;18.70;99.90;;;;;;4997836;28;19914;-86
2021/10/19 11:42:40;;;;;;;;;;;19.00;99.90;;;;;;5097158;23;19934;-89
2021/10/19 11:45:56;;;;;;;;;;;;;;;;;;;;;
2021/10/19 11:48:22;;;;;;;;;;;19.10;99.90;;;;;;5012454;23;19960;-87
2021/10/19 11:50:49;;;;;;;;;;;19.20;99.90;;;;;;5069659;23;19926;-87
2021/10/19 11:53:15;;;;;;;;;;;19.20;99.90;;;;;;5007707;28;19946;-87
2021/10/19 11:55:41;;;;;;;;;;;18.80;99.90;;;;;;4974400;28;19942;-86
2021/10/19 11:58:07;;;;;;;;;;;18.70;99.90;;;;;;4988534;28;19914;-87
2021/10/19 12:00:34;;;;;;;;;;;18.50;99.90;;;;;;4976666;28;19918;-86
2021/10/19 12:03:00;;;;;;;;;;;18.50;99.90;;;;;;4976351;29;19910;-87
2021/10/19 12:05:27;;;;;;;;;;;18.40;99.90;;;;;;4968809;28;19941;-86
2021/10/19 12:08:03;;;;;;;;;;;18.40;99.90;;;;;;4977029;28;19910;-88
2021/10/19 12:10:29;;;;;;;;;;;18.30;99.90;;;;;;4995017;28;19921;-86
2021/10/19 12:13:00;;;;;;;;;;;18.40;99.90;;;;;;4996032;28;19910;-87
2021/10/19 12:15:27;;;;;;;;;;;18.50;99.90;;;;;;4978861;28;19910;-87
2021/10/19 12:17:59;;;;;;;;;;;18.50;99.90;;;;;;4995429;28;19945;-87
2021/10/19 12:20:26;;;;;;;;;;;18.50;99.90;;;;;;4994809;28;19956;-86
2021/10/19 12:22:59;;;;;;;;;;;18.70;99.90;;;;;;4995368;28;19914;-86
2021/10/19 12:25:26;;;;;;;;;;;18.70;99.90;;;;;;4977906;28;19978;-86
2021/10/19 12:27:51;;;;;;;;;;;18.70;99.90;;;;;;5051611;23;19945;-87
2021/10/19 12:30:26;;;;;;;;;;;18.70;99.90;;;;;;4997490;28;19961;-86
2021/10/19 12:32:53;;;;;;;;;;;18.70;99.90;;;;;;4989174;28;19949;-86
2021/10/19 12:35:27;;;;;;;;;;;18.60;99.90;;;;;;5002176;28;19974;-87
2021/10/19 12:37:54;;;;;;;;;;;18.60;99.90;;;;;;5001416;28;19905;-87
2021/10/19 12:40:21;;;;;;;;;;;18.70;99.90;;;;;;5005256;28;19926;-88
2021/10/19 12:42:47;;;;;;;;;;;18.80;99.90;;;;;;4990636;28;19937;-87
2021/10/19 12:45:25;;;;;;;;;;;19.00;99.90;;;;;;5003175;28;19918;-87
2021/10/19 12:47:53;;;;;;;;;;;19.10;99.90;;;;;;5015450;28;19949;-87
2021/10/19 12:50:19;;;;;;;;;;;19.20;99.90;;;;;;4986371;28;19906;-86
2021/10/19 12:52:45;;;;;;;;;;;19.30;99.90;;;;;;5006450;28;19953;-87
2021/10/19 12:55:27;;;;;;;;;;;;;;;;;;;;;
2021/10/19 13:09:37;;;;;;;;;;;18.40;99.90;;;;;;4983549;28;19925;-86
2021/10/19 13:12:24;;;;;;;;;;;18.40;99.90;;;;;;4994676;28;19914;-85
2021/10/19 13:14:55;;;;;;;;;;;18.50;99.90;;;;;;4992430;28;19923;-87
2021/10/19 13:20:04;;;;;;;;;;;18.40;99.90;;;;;;5014516;23;19926;-85
2021/10/19 13:22:30;;;;;;;;;;;18.40;99.90;;;;;;5001085;28;19926;-84
2021/10/19 13:24:58;;;;;;;;;;;18.50;99.90;;;;;;4993578;28;20001;-84
2021/10/19 13:27:26;;;;;;;;;;;18.40;99.90;;;;;;4981152;28;19915;-83
2021/10/19 13:30:03;;;;;;;;;;;18.20;99.90;;;;;;4993314;28;19918;-86
2021/10/19 13:32:41;;;;;;;;;;;18.20;99.90;;;;;;4990981;28;19914;-85
2021/10/19 13:35:07;;;;;;;;;;;18.10;99.90;;;;;;5002204;28;19913;-85
2021/10/19 13:37:36;;;;;;;;;;;18.00;99.90;;;;;;4997699;28;19913;-86
2021/10/19 13:40:04;;;;;;;;;;;17.90;99.90;;;;;;5001084;28;19922;-87
2021/10/19 13:42:33;;;;;;;;;;;17.80;99.90;;;;;;5012297;28;19933;-86
2021/10/19 13:58:35;;;;;;;;;;;17.70;99.90;;;;;;6004218;22;5097598;-88
2021/10/19 14:12:38;;;;;;;;;;;17.40;99.90;;;;;;6193646;23;19921;-87
2021/10/19 14:18:15;;;;;;;;;;;17.40;99.90;;;;;;6128713;23;19931;-89
2021/10/19 14:20:43;;;;;;;;;;;17.50;99.90;;;;;;6188346;23;19919;-87
2021/10/19 14:29:34;;;;;;;;;;;17.40;99.90;;;;;;6124385;23;19905;-86
2021/10/19 14:32:28;;;;;;;;;;;17.40;99.90;;;;;;6128168;23;19905;-86
2021/10/19 14:35:02;;;;;;;;;;;17.40;99.90;;;;;;6131728;23;19925;-86
2021/10/19 14:37:37;;;;;;;;;;;17.30;99.90;;;;;;6154583;23;19897;-86
2021/10/19 14:40:33;;;;;;;;;;;;;;;;;;;;;
2021/10/19 14:43:10;;;;;;;;;;;17.20;99.90;;;;;;6131603;23;19917;-85
2021/10/19 14:45:52;;;;;;;;;;;17.20;99.90;;;;;;6155385;23;19917;-87
2021/10/19 14:48:22;;;;;;;;;;;17.20;99.90;;;;;;6131572;23;19917;-86
2021/10/19 14:50:50;;;;;;;;;;;17.20;99.90;;;;;;6153527;23;19897;-87
2021/10/19 14:53:18;;;;;;;;;;;17.10;99.90;;;;;;6130915;23;19897;-87
2021/10/19 14:56:13;;;;;;;;;;;17.10;99.90;;;;;;6130491;23;19917;-86
2021/10/19 15:11:57;;;;;;;;;;;17.10;99.90;;;;;;5979966;23;19985;-85
2021/10/19 15:15:14;;;;;;;;;;;17.10;99.90;;;;;;5984097;23;19906;-85
2021/10/19 15:18:03;;;;;;;;;;;17.10;99.90;;;;;;5978513;23;19900;-85
2021/10/19 15:21:10;;;;;;;;;;;17.10;99.90;;;;;;5979915;23;19907;-86
2021/10/19 15:23:47;;;;;;;;;;;17.10;99.90;;;;;;5931099;23;19945;-85
2021/10/19 15:26:26;;;;;;;;;;;17.20;99.90;;;;;;5925399;24;19983;-86
2021/10/19 15:29:07;;;;;;;;;;;17.20;99.90;;;;;;5925463;24;19919;-85
2021/10/19 15:31:42;;;;;;;;;;;17.10;99.90;;;;;;5947351;23;19907;-86
2021/10/19 15:34:35;;;;;;;;;;;17.00;99.90;;;;;;5985242;23;19902;-87
2021/10/19 15:37:22;;;;;;;;;;;17.10;99.90;;;;;;5981804;23;19899;-86
2021/10/19 15:40:13;;;;;;;;;;;;;;;;;;;;;
2021/10/19 15:51:01;;;;;;;;;;;16.70;99.90;;;;;;6130530;23;19912;-85
2021/10/19 15:56:42;;;;;;;;;;;16.60;99.90;;;;;;6118621;23;19909;-86
2021/10/19 15:59:30;;;;;;;;;;;16.60;99.90;;;;;;6122000;23;19893;-86
2021/10/19 16:01:55;;;;;;;;;;;16.50;99.90;;;;;;6098142;23;19917;-85
2021/10/19 16:04:21;;;;;;;;;;;16.50;99.90;;;;;;6121417;23;19905;-86
2021/10/19 16:06:52;;;;;;;;;;;16.40;99.90;;;;;;6117701;23;19945;-85
2021/10/19 16:09:18;;;;;;;;;;;16.50;99.90;;;;;;6088790;23;19905;-85
2021/10/19 16:11:47;;;;;;;;;;;16.50;99.90;;;;;;6113897;23;19956;-87
2021/10/19 16:14:13;;;;;;;;;;;16.40;99.90;;;;;;6115122;23;19909;-85
2021/10/19 16:16:39;;;;;;;;;;;16.40;99.90;;;;;;6115884;23;19963;-86
2021/10/19 16:19:07;;;;;;;;;;;16.40;99.90;;;;;;6115249;23;19915;-86
2021/10/19 16:21:33;;;;;;;;;;;16.30;99.90;;;;;;6090307;23;19909;-86
2021/10/19 16:24:00;;;;;;;;;;;16.30;99.90;;;;;;6090097;23;19908;-86
2021/10/19 16:26:26;;;;;;;;;;;16.40;99.90;;;;;;6114800;23;19988;-86
2021/10/19 16:28:52;;;;;;;;;;;16.30;99.90;;;;;;6114441;23;19909;-88
2021/10/19 16:31:19;;;;;;;;;;;16.30;99.90;;;;;;6115136;23;19916;-86
2021/10/19 16:33:45;;;;;;;;;;;16.30;99.90;;;;;;6113244;23;19905;-87
2021/10/19 16:36:10;;;;;;;;;;;16.40;99.90;;;;;;6112916;23;20267;-86
2021/10/19 16:38:36;;;;;;;;;;;16.40;99.90;;;;;;6114646;23;19961;-88
2021/10/19 16:41:02;;;;;;;;;;;16.40;99.90;;;;;;6091384;23;20418;-85
2021/10/19 16:43:28;;;;;;;;;;;16.40;99.90;;;;;;6091083;23;19905;-86
2021/10/19 16:45:54;;;;;;;;;;;16.30;99.90;;;;;;6091214;23;19905;-86
2021/10/19 16:48:26;;;;;;;;;;;16.30;99.90;;;;;;6090456;23;19932;-86
2021/10/19 16:50:58;;;;;;;;;;;16.30;99.90;;;;;;6116404;23;19912;-86
2021/10/19 16:53:26;;;;;;;;;;;16.20;99.90;;;;;;6115947;23;19906;-87